Ana Sayfa
METAR-TAF:

METAR-TAF

Havaalanları :

Pikeville, Kentucky, Amerika Birleşik Devletleri

Enlem: 37-33-42N, Boylam: 082-33-59W, yükseklik: 449 m

Güncel hava durumu gözlemi

Rapor saat 17:15 UTC de 17 dakika önce yapıldı.
Sakin rüzgar
Sıcaklık 29°C
Nem 70%
Basınç 1020 hPa
Görüş mesafesi: 16.1 km
3700 ft yükseklikte parçalı bulutlu
4300 ft yükseklikte parçalı bulutlu
4900 ft yükseklikte parçalı bulutlu

METAR: KPBX 191715Z AUTO 00000KT 10SM SCT037 SCT043 SCT049 29/23 A3011 RMK AO2 T02930228

Saat: 13:32 (17:32 UTC)


TAF: eksik

4.000'den fazla havaalanı için hava durumu gözlemleri ve tahminleri (METAR ve TAF raporları).

Kullanılabilir istasyonlar harita üzerinde sarı ve kırmızı noktalarla gösterilir.

İstasyonun adını görmek için fareyi noktanın üzerinde gezdirin.

Sonrasında hava gözlem ve tahminlerini görmek için tıklayın.

Haritayı değiştirmek için: yaklaştırmak için siyah artı işaretli yeşil düğmeye ve uzaklaştırmak için de eksi işaretli düğmeye hızla tıklayın; bitişik haritalar için yeşil okları kullanın.


METAR-TAF: